createdAt,value
2018-01-24T00:01:54.072Z,4.30
2018-01-24T00:04:21.178Z,4.30
2018-01-24T00:06:47.637Z,4.30
2018-01-24T00:09:14.034Z,4.40
2018-01-24T00:11:40.435Z,4.40
2018-01-24T00:14:06.820Z,4.40
2018-01-24T00:16:33.248Z,4.30
2018-01-24T00:18:59.656Z,4.20
2018-01-24T00:21:26.055Z,4.30
2018-01-24T00:23:53.175Z,4.40
2018-01-24T00:26:19.566Z,4.40
2018-01-24T00:28:45.953Z,4.30
2018-01-24T00:31:13.062Z,4.40
2018-01-24T00:33:39.425Z,4.40
2018-01-24T00:36:05.823Z,4.40
2018-01-24T00:38:32.226Z,4.40
2018-01-24T00:40:58.596Z,4.40
2018-01-24T00:43:24.986Z,4.30
2018-01-24T00:45:51.374Z,4.20
2018-01-24T00:48:17.749Z,4.30
2018-01-24T00:50:44.131Z,4.30
2018-01-24T00:53:10.506Z,4.40
2018-01-24T00:55:37.621Z,4.40
2018-01-24T00:58:04.078Z,4.30
2018-01-24T01:00:31.210Z,4.20
2018-01-24T01:02:57.594Z,4.20
2018-01-24T01:05:23.965Z,4.20
2018-01-24T01:07:50.339Z,4.20
2018-01-24T01:10:16.722Z,4.10
2018-01-24T01:12:43.167Z,4.00
2018-01-24T01:15:09.570Z,4.20
2018-01-24T01:17:35.938Z,4.30
2018-01-24T01:20:03.080Z,4.30
2018-01-24T01:22:29.454Z,4.30
2018-01-24T01:24:55.826Z,4.20
2018-01-24T01:27:22.207Z,4.30
2018-01-24T01:29:48.572Z,4.40
2018-01-24T01:32:14.978Z,4.40
2018-01-24T01:34:41.401Z,4.40
2018-01-24T01:37:08.517Z,4.20
2018-01-24T01:39:34.907Z,4.20
2018-01-24T01:42:01.314Z,4.20
2018-01-24T01:44:27.719Z,4.20
2018-01-24T01:46:54.133Z,4.30
2018-01-24T01:49:20.578Z,4.20
2018-01-24T01:51:47.017Z,4.30
2018-01-24T01:54:13.401Z,4.10
2018-01-24T01:56:39.807Z,4.00
2018-01-24T01:59:07.003Z,4.10
2018-01-24T02:01:33.418Z,4.10
2018-01-24T02:03:59.799Z,4.20
2018-01-24T02:06:26.159Z,4.20
2018-01-24T02:08:52.518Z,4.10
2018-01-24T02:11:18.890Z,4.10
2018-01-24T02:13:45.379Z,4.20
2018-01-24T02:16:11.788Z,4.20
2018-01-24T02:18:38.153Z,4.20
2018-01-24T02:21:04.529Z,4.40
2018-01-24T02:23:31.693Z,4.40
2018-01-24T02:25:58.840Z,4.40
2018-01-24T02:28:25.990Z,4.50
2018-01-24T02:30:52.373Z,4.40
2018-01-24T02:33:18.758Z,4.40
2018-01-24T02:35:45.908Z,4.40
2018-01-24T02:38:24.679Z,4.40
2018-01-24T02:40:51.067Z,4.20
2018-01-24T02:43:17.464Z,4.20
2018-01-24T02:45:43.843Z,4.10
2018-01-24T02:48:10.204Z,4.00
2018-01-24T02:50:36.578Z,4.00
2018-01-24T02:53:03.697Z,4.10
2018-01-24T02:55:30.082Z,4.10
2018-01-24T02:57:56.469Z,4.10
2018-01-24T03:00:22.842Z,4.00
2018-01-24T03:02:49.218Z,4.00
2018-01-24T03:05:15.651Z,3.90
2018-01-24T03:07:42.047Z,3.90
2018-01-24T03:10:08.482Z,3.90
2018-01-24T03:12:34.915Z,3.70
2018-01-24T03:15:01.291Z,3.70
2018-01-24T03:17:28.422Z,3.60
2018-01-24T03:19:55.069Z,3.60
2018-01-24T03:22:21.458Z,3.60
2018-01-24T03:24:47.823Z,3.60
2018-01-24T03:27:14.276Z,3.50
2018-01-24T03:29:40.725Z,3.50
2018-01-24T03:32:07.838Z,3.50
2018-01-24T03:34:34.233Z,3.50
2018-01-24T03:37:00.623Z,3.70
2018-01-24T03:39:27.010Z,3.60
2018-01-24T03:41:53.385Z,3.70
2018-01-24T03:44:19.771Z,3.90
2018-01-24T03:46:46.164Z,3.90
2018-01-24T03:49:13.288Z,3.90
2018-01-24T03:51:39.668Z,3.90
2018-01-24T03:54:06.054Z,3.80
2018-01-24T03:56:32.434Z,3.90
2018-01-24T03:58:58.814Z,4.00
2018-01-24T04:01:25.206Z,4.00
2018-01-24T04:03:51.570Z,4.10
2018-01-24T04:06:17.928Z,4.00
2018-01-24T04:08:44.318Z,4.10
2018-01-24T04:11:10.716Z,4.00
2018-01-24T04:13:37.129Z,4.20
2018-01-24T04:16:04.227Z,4.20
2018-01-24T04:18:30.620Z,4.20
2018-01-24T04:20:57.750Z,4.30
2018-01-24T04:23:24.187Z,4.20
2018-01-24T04:25:51.334Z,4.10
2018-01-24T04:28:17.694Z,4.10
2018-01-24T04:30:44.060Z,4.20
2018-01-24T04:33:10.516Z,4.20
2018-01-24T04:35:36.910Z,4.20
2018-01-24T04:38:03.330Z,4.20
2018-01-24T04:40:29.698Z,3.90
2018-01-24T04:42:56.062Z,3.90
2018-01-24T04:45:23.234Z,3.90
2018-01-24T04:47:49.605Z,3.90
2018-01-24T04:50:16.033Z,3.90
2018-01-24T04:52:42.401Z,3.90
2018-01-24T04:55:08.773Z,4.00
2018-01-24T04:57:35.194Z,4.10
2018-01-24T05:00:01.614Z,4.10
2018-01-24T05:02:28.778Z,4.20
2018-01-24T05:04:55.212Z,4.20
2018-01-24T05:07:21.630Z,4.20
2018-01-24T05:09:48.793Z,4.20
2018-01-24T05:12:15.226Z,4.20
2018-01-24T05:14:41.660Z,4.10
2018-01-24T05:17:08.069Z,4.20
2018-01-24T05:19:35.250Z,4.20
2018-01-24T05:22:01.990Z,4.20
2018-01-24T05:24:28.415Z,4.20
2018-01-24T05:26:54.810Z,4.20
2018-01-24T05:29:21.187Z,4.20
2018-01-24T05:31:47.633Z,4.10
2018-01-24T05:34:14.028Z,4.10
2018-01-24T05:36:41.230Z,4.30
2018-01-24T05:39:07.622Z,4.20
2018-01-24T05:41:34.746Z,4.30
2018-01-24T05:44:01.156Z,4.20
2018-01-24T05:46:27.557Z,4.20
2018-01-24T05:48:53.933Z,4.10
2018-01-24T05:51:20.319Z,4.10
2018-01-24T05:53:46.702Z,4.10
2018-01-24T05:56:13.075Z,4.10
2018-01-24T05:58:39.467Z,4.10
2018-01-24T06:01:05.866Z,4.00
2018-01-24T06:03:32.257Z,4.00
2018-01-24T06:05:59.371Z,3.90
2018-01-24T06:08:25.776Z,3.90
2018-01-24T06:10:52.143Z,4.00
2018-01-24T06:13:18.533Z,4.00
2018-01-24T06:15:44.933Z,3.90
2018-01-24T06:18:12.038Z,3.90
2018-01-24T06:20:38.434Z,3.90
2018-01-24T06:23:04.818Z,4.10
2018-01-24T06:25:31.207Z,4.20
2018-01-24T06:27:57.606Z,4.20
2018-01-24T06:30:24.726Z,4.30
2018-01-24T06:32:51.122Z,4.20
2018-01-24T06:35:17.514Z,4.40
2018-01-24T06:37:44.623Z,4.30
2018-01-24T06:40:11.070Z,4.30
2018-01-24T06:42:38.275Z,4.30
2018-01-24T06:45:04.674Z,4.30
2018-01-24T06:47:31.816Z,4.20
2018-01-24T06:49:58.930Z,4.30
2018-01-24T06:52:25.371Z,4.30
2018-01-24T06:54:51.727Z,4.30
2018-01-24T06:57:18.854Z,4.20
2018-01-24T06:59:45.240Z,4.20
2018-01-24T07:02:11.638Z,4.20
2018-01-24T07:04:38.775Z,4.40
2018-01-24T07:07:05.149Z,4.40
2018-01-24T07:09:31.554Z,4.50
2018-01-24T07:12:10.879Z,4.20
2018-01-24T07:14:44.025Z,4.30
2018-01-24T07:17:10.531Z,4.30
2018-01-24T07:19:37.662Z,4.20
2018-01-24T07:22:04.853Z,4.40
2018-01-24T07:24:31.259Z,4.30
2018-01-24T07:26:58.426Z,4.50
2018-01-24T07:29:24.858Z,4.50
2018-01-24T07:31:52.185Z,4.50
2018-01-24T07:34:19.306Z,4.60
2018-01-24T07:36:45.744Z,4.60
2018-01-24T07:39:12.141Z,4.60
2018-01-24T07:41:38.516Z,4.70
2018-01-24T07:44:04.898Z,4.70
2018-01-24T07:46:31.325Z,4.70
2018-01-24T07:48:57.760Z,4.80
2018-01-24T07:51:24.180Z,4.90
2018-01-24T07:53:50.621Z,4.90
2018-01-24T07:56:17.178Z,5.00
2018-01-24T07:58:43.590Z,4.90
2018-01-24T08:01:10.018Z,5.10
2018-01-24T08:03:36.446Z,5.00
2018-01-24T08:06:03.628Z,5.30
2018-01-24T08:08:30.025Z,5.20
2018-01-24T08:10:56.395Z,5.10
2018-01-24T08:13:22.775Z,5.00
2018-01-24T08:15:49.899Z,5.00
2018-01-24T08:18:16.290Z,5.00
2018-01-24T08:20:42.687Z,5.00
2018-01-24T08:23:09.859Z,5.20
2018-01-24T08:25:36.287Z,5.20
2018-01-24T08:28:04.327Z,5.80
2018-01-24T08:30:30.709Z,5.80
2018-01-24T08:32:57.066Z,6.00
2018-01-24T08:35:23.469Z,6.30
2018-01-24T08:37:49.891Z,6.30
2018-01-24T08:40:16.303Z,6.30
2018-01-24T08:42:43.444Z,6.80
2018-01-24T08:45:10.570Z,6.80
2018-01-24T08:47:37.698Z,6.80
2018-01-24T08:50:04.136Z,6.80
2018-01-24T08:52:30.519Z,6.90
2018-01-24T08:54:57.671Z,7.30
2018-01-24T08:57:24.812Z,7.50
2018-01-24T08:59:51.211Z,7.50
2018-01-24T09:02:17.613Z,7.60
2018-01-24T09:04:43.995Z,7.60
2018-01-24T09:07:10.418Z,7.60
2018-01-24T09:09:36.820Z,7.70
2018-01-24T09:12:03.191Z,7.70
2018-01-24T09:14:30.324Z,7.50
2018-01-24T09:16:56.694Z,7.50
2018-01-24T09:19:23.826Z,7.70
2018-01-24T09:21:50.231Z,7.70
2018-01-24T09:24:16.630Z,7.90
2018-01-24T09:26:43.047Z,8.00
2018-01-24T09:29:10.150Z,8.20
2018-01-24T09:31:36.554Z,8.20
2018-01-24T09:34:02.954Z,8.00
2018-01-24T09:36:30.103Z,8.20
2018-01-24T09:38:57.270Z,8.20
2018-01-24T09:41:23.686Z,8.20
2018-01-24T09:43:50.078Z,8.30
2018-01-24T09:46:16.470Z,8.60
2018-01-24T09:48:42.852Z,8.90
2018-01-24T09:51:10.026Z,8.70
2018-01-24T09:53:37.153Z,8.50
2018-01-24T09:56:03.541Z,8.50
2018-01-24T09:58:29.906Z,8.50
2018-01-24T10:00:56.281Z,8.50
2018-01-24T10:03:23.453Z,8.30
2018-01-24T10:05:49.822Z,8.20
2018-01-24T10:08:16.223Z,8.30
2018-01-24T10:10:42.609Z,8.30
2018-01-24T10:13:08.986Z,8.30
2018-01-24T10:15:35.347Z,8.20
2018-01-24T10:18:01.721Z,8.20
2018-01-24T10:20:28.094Z,8.30
2018-01-24T10:22:54.467Z,8.40
2018-01-24T10:25:20.849Z,8.50
2018-01-24T10:27:47.226Z,8.70
2018-01-24T10:30:14.355Z,8.60
2018-01-24T10:32:40.735Z,8.60
2018-01-24T10:35:07.883Z,8.20
2018-01-24T10:37:34.998Z,8.20
2018-01-24T10:40:02.907Z,8.20
2018-01-24T10:42:29.303Z,8.20
2018-01-24T10:44:56.440Z,8.60
2018-01-24T10:47:22.820Z,8.50
2018-01-24T10:49:49.233Z,8.30
2018-01-24T10:52:16.342Z,8.10
2018-01-24T10:54:43.540Z,8.30
2018-01-24T10:57:10.706Z,8.80
2018-01-24T10:59:37.078Z,8.80
2018-01-24T11:02:03.469Z,8.70
2018-01-24T11:04:29.854Z,8.90
2018-01-24T11:06:56.236Z,9.00
2018-01-24T11:09:22.654Z,9.10
2018-01-24T11:11:49.861Z,8.70
2018-01-24T11:14:16.234Z,8.70
2018-01-24T11:16:43.389Z,8.20
2018-01-24T11:19:09.754Z,8.20
2018-01-24T11:21:36.150Z,7.80
2018-01-24T11:24:02.562Z,7.40
2018-01-24T11:26:29.694Z,7.30
2018-01-24T11:28:56.082Z,7.30
2018-01-24T11:31:22.474Z,7.40
2018-01-24T11:33:48.937Z,7.50
2018-01-24T11:36:16.086Z,8.00
2018-01-24T11:38:42.484Z,8.00
2018-01-24T11:41:10.343Z,8.10
2018-01-24T11:43:37.458Z,8.00
2018-01-24T11:46:03.856Z,8.00
2018-01-24T11:48:31.040Z,8.30
2018-01-24T11:50:57.423Z,8.30
2018-01-24T11:53:24.556Z,8.50
2018-01-24T11:55:51.723Z,8.50
2018-01-24T11:58:18.889Z,8.50
2018-01-24T12:00:45.347Z,8.40
2018-01-24T12:03:11.747Z,8.40
2018-01-24T12:05:38.867Z,8.60
2018-01-24T12:08:06.018Z,8.80
2018-01-24T12:10:33.899Z,9.00
2018-01-24T12:13:01.103Z,9.10
2018-01-24T12:15:27.501Z,9.10
2018-01-24T12:17:54.644Z,9.30
2018-01-24T12:20:21.807Z,9.40
2018-01-24T12:22:48.239Z,9.40
2018-01-24T12:25:14.688Z,9.40
2018-01-24T12:27:41.147Z,9.50
2018-01-24T12:30:07.566Z,9.60
2018-01-24T12:32:34.001Z,9.60
2018-01-24T12:35:00.419Z,9.60
2018-01-24T12:37:26.840Z,9.70
2018-01-24T12:39:53.268Z,9.90
2018-01-24T12:42:19.686Z,10.10
2018-01-24T12:44:46.859Z,10.50
2018-01-24T12:47:13.306Z,10.40
2018-01-24T12:49:39.761Z,10.50
2018-01-24T12:52:06.175Z,10.50
2018-01-24T12:54:32.616Z,10.30
2018-01-24T12:56:59.033Z,10.20
2018-01-24T12:59:25.528Z,10.40
2018-01-24T13:01:52.749Z,10.30
2018-01-24T13:04:20.140Z,10.30
2018-01-24T13:06:47.317Z,9.30
2018-01-24T13:09:13.744Z,9.30
2018-01-24T13:11:40.195Z,9.20
2018-01-24T13:14:06.737Z,9.20
2018-01-24T13:16:33.151Z,9.40
2018-01-24T13:18:59.581Z,9.80
2018-01-24T13:21:26.044Z,10.10
2018-01-24T13:23:52.443Z,10.40
2018-01-24T13:26:18.850Z,10.60
2018-01-24T13:28:45.271Z,10.60
2018-01-24T13:31:11.683Z,10.20
2018-01-24T13:33:38.083Z,10.30
2018-01-24T13:36:04.609Z,10.00
2018-01-24T13:38:31.030Z,10.10
2018-01-24T13:40:58.142Z,10.20
2018-01-24T13:43:24.557Z,10.20
2018-01-24T13:45:50.981Z,10.30
2018-01-24T13:48:17.480Z,10.00
2018-01-24T13:50:43.911Z,9.70
2018-01-24T13:53:11.121Z,9.40
2018-01-24T13:55:37.512Z,9.40
2018-01-24T13:58:03.922Z,9.30
2018-01-24T14:00:31.066Z,9.30
2018-01-24T14:02:58.191Z,9.40
2018-01-24T14:05:24.682Z,9.40
2018-01-24T14:07:51.142Z,9.70
2018-01-24T14:10:17.543Z,10.10
2018-01-24T14:12:43.946Z,10.30
2018-01-24T14:15:11.158Z,10.60
2018-01-24T14:17:37.580Z,10.50
2018-01-24T14:20:04.041Z,10.50
2018-01-24T14:22:30.467Z,10.20
2018-01-24T14:24:56.886Z,10.00
2018-01-24T14:27:23.309Z,10.00
2018-01-24T14:29:49.713Z,10.00
2018-01-24T14:32:16.152Z,10.00
2018-01-24T14:34:42.616Z,10.10
2018-01-24T14:37:09.023Z,10.00
2018-01-24T14:39:35.406Z,9.80
2018-01-24T14:42:01.799Z,9.60
2018-01-24T14:44:28.202Z,9.60
2018-01-24T14:46:55.319Z,9.60
2018-01-24T14:49:21.720Z,9.60
2018-01-24T14:51:48.099Z,9.80
2018-01-24T14:54:14.515Z,10.10
2018-01-24T14:56:40.956Z,10.30
2018-01-24T14:59:07.362Z,10.40
2018-01-24T15:01:33.759Z,10.30
2018-01-24T15:04:01.154Z,10.20
2018-01-24T15:06:27.620Z,10.10
2018-01-24T15:08:54.009Z,10.10
2018-01-24T15:11:20.406Z,9.90
2018-01-24T15:13:47.567Z,9.80
2018-01-24T15:16:14.674Z,9.70
2018-01-24T15:18:41.798Z,9.50
2018-01-24T15:21:08.262Z,9.40
2018-01-24T15:23:35.648Z,9.30
2018-01-24T15:26:02.088Z,9.20
2018-01-24T15:28:30.053Z,9.20
2018-01-24T15:30:57.256Z,9.20
2018-01-24T15:33:23.637Z,9.20
2018-01-24T15:35:50.028Z,9.10
2018-01-24T15:38:17.906Z,8.80
2018-01-24T15:40:44.273Z,8.80
2018-01-24T15:43:10.642Z,8.60
2018-01-24T15:45:37.055Z,8.40
2018-01-24T15:48:03.455Z,8.50
2018-01-24T15:50:30.585Z,8.20
2018-01-24T15:52:57.732Z,8.10
2018-01-24T15:55:24.126Z,8.00
2018-01-24T15:57:50.505Z,8.00
2018-01-24T16:00:17.626Z,7.80
2018-01-24T16:02:43.998Z,7.80
2018-01-24T16:05:10.405Z,7.70
2018-01-24T16:07:36.845Z,7.70
2018-01-24T16:10:03.317Z,7.70
2018-01-24T16:12:29.772Z,7.60
2018-01-24T16:14:56.207Z,7.60
2018-01-24T16:17:22.573Z,7.60
2018-01-24T16:19:50.447Z,7.40
2018-01-24T16:22:16.804Z,7.40
2018-01-24T16:24:43.207Z,7.50
2018-01-24T16:27:10.346Z,7.20
2018-01-24T16:29:38.215Z,7.00
2018-01-24T16:32:04.598Z,7.00
2018-01-24T16:34:30.973Z,6.90
2018-01-24T16:36:57.415Z,6.90
2018-01-24T16:39:24.603Z,6.50
2018-01-24T16:41:50.998Z,6.40
2018-01-24T16:44:17.433Z,6.30
2018-01-24T16:46:44.589Z,6.00
2018-01-24T16:49:11.857Z,5.90
2018-01-24T16:51:38.289Z,5.90
2018-01-24T16:54:04.738Z,5.80
2018-01-24T16:56:31.504Z,5.80
2018-01-24T16:58:57.961Z,5.70
2018-01-24T17:01:25.880Z,5.60
2018-01-24T17:03:52.379Z,5.60
2018-01-24T17:06:19.530Z,5.50
2018-01-24T17:08:46.704Z,5.20
2018-01-24T17:11:13.084Z,5.20
2018-01-24T17:13:39.516Z,5.10
2018-01-24T17:16:05.939Z,5.10
2018-01-24T17:18:32.326Z,5.20
2018-01-24T17:20:58.783Z,5.30
2018-01-24T17:23:25.919Z,5.60
2018-01-24T17:25:52.327Z,5.60
2018-01-24T17:28:18.715Z,5.80
2018-01-24T17:30:45.105Z,5.70
2018-01-24T17:33:12.219Z,5.40
2018-01-24T17:35:38.603Z,5.40
2018-01-24T17:38:05.007Z,5.20
2018-01-24T17:40:32.127Z,5.60
2018-01-24T17:42:58.539Z,5.60
2018-01-24T17:45:24.992Z,5.80
2018-01-24T17:47:51.503Z,6.00
2018-01-24T17:50:17.967Z,6.00
2018-01-24T17:52:44.428Z,6.20
2018-01-24T17:55:11.597Z,6.30
2018-01-24T17:57:37.982Z,6.30
2018-01-24T18:00:04.390Z,6.30
2018-01-24T18:02:30.763Z,6.10
2018-01-24T18:04:57.885Z,6.10
2018-01-24T18:07:24.293Z,6.10
2018-01-24T18:09:50.692Z,6.20
2018-01-24T18:12:17.103Z,6.20
2018-01-24T18:14:44.254Z,6.20
2018-01-24T18:17:11.390Z,6.20
2018-01-24T18:19:37.772Z,6.20
2018-01-24T18:22:04.192Z,6.20
2018-01-24T18:24:30.624Z,5.90
2018-01-24T18:26:57.766Z,5.80
2018-01-24T18:29:24.172Z,5.70
2018-01-24T18:31:51.303Z,5.50
2018-01-24T18:34:17.702Z,5.50
2018-01-24T18:36:44.090Z,5.50
2018-01-24T18:39:10.504Z,5.40
2018-01-24T18:41:36.896Z,5.40
2018-01-24T18:44:03.263Z,5.50
2018-01-24T18:46:29.642Z,5.50
2018-01-24T18:48:56.771Z,5.20
2018-01-24T18:51:23.174Z,5.20
2018-01-24T18:53:49.571Z,5.30
2018-01-24T18:56:15.945Z,5.20
2018-01-24T18:58:42.391Z,5.00
2018-01-24T19:01:09.893Z,4.80
2018-01-24T19:03:36.358Z,4.70
2018-01-24T19:06:02.714Z,4.70
2018-01-24T19:08:29.066Z,4.60
2018-01-24T19:10:56.170Z,4.30
2018-01-24T19:13:22.554Z,4.30
2018-01-24T19:15:48.954Z,4.40
2018-01-24T19:18:16.310Z,4.30
2018-01-24T19:20:42.899Z,4.30
2018-01-24T19:23:09.322Z,4.10
2018-01-24T19:25:35.722Z,3.80
2018-01-24T19:28:02.085Z,3.70
2018-01-24T19:30:28.481Z,3.80
2018-01-24T19:32:54.865Z,3.80
2018-01-24T19:35:21.239Z,3.90
2018-01-24T19:37:49.111Z,3.70
2018-01-24T19:40:16.596Z,3.70
2018-01-24T19:42:43.736Z,3.10
2018-01-24T19:45:10.841Z,3.10
2018-01-24T19:47:37.260Z,3.10
2018-01-24T19:50:03.664Z,3.10
2018-01-24T19:52:30.800Z,3.00
2018-01-24T19:54:57.980Z,3.10
2018-01-24T19:57:24.386Z,3.10
2018-01-24T19:59:50.824Z,3.40
2018-01-24T20:02:18.022Z,4.00
2018-01-24T20:04:44.390Z,4.00
2018-01-24T20:07:11.506Z,4.40
2018-01-24T20:09:37.913Z,4.30
2018-01-24T20:12:04.291Z,4.50
2018-01-24T20:14:32.138Z,4.70
2018-01-24T20:16:58.605Z,4.70
2018-01-24T20:19:25.734Z,4.80
2018-01-24T20:21:52.867Z,4.80
2018-01-24T20:24:19.252Z,4.80
2018-01-24T20:26:46.370Z,4.80
2018-01-24T20:29:14.246Z,4.80
2018-01-24T20:31:44.165Z,4.80
2018-01-24T20:34:11.282Z,5.00
2018-01-24T20:36:37.665Z,5.00
2018-01-24T20:39:04.098Z,5.00
2018-01-24T20:41:30.673Z,5.00
2018-01-24T20:43:57.034Z,4.90
2018-01-24T20:46:23.417Z,4.90
2018-01-24T20:48:49.802Z,5.00
2018-01-24T20:51:17.646Z,4.80
2018-01-24T20:53:44.027Z,4.80
2018-01-24T20:56:10.412Z,4.40
2018-01-24T20:58:36.821Z,4.50
2018-01-24T21:01:03.206Z,4.60
2018-01-24T21:03:30.332Z,4.50
2018-01-24T21:05:56.738Z,4.50
2018-01-24T21:08:23.135Z,4.60
2018-01-24T21:10:50.250Z,4.60
2018-01-24T21:13:16.626Z,4.60
2018-01-24T21:15:43.042Z,4.70
2018-01-24T21:18:10.167Z,4.70
2018-01-24T21:20:36.550Z,4.70
2018-01-24T21:23:02.922Z,4.50
2018-01-24T21:25:29.373Z,4.50
2018-01-24T21:27:56.516Z,4.60
2018-01-24T21:30:22.957Z,4.60
2018-01-24T21:33:02.286Z,4.70
2018-01-24T21:35:41.752Z,4.50
2018-01-24T21:38:08.168Z,4.50
2018-01-24T21:40:35.300Z,4.50
2018-01-24T21:43:01.680Z,4.50
2018-01-24T21:45:28.052Z,4.60
2018-01-24T21:47:54.425Z,4.50
2018-01-24T21:50:20.895Z,4.60
2018-01-24T21:52:47.291Z,4.60
2018-01-24T21:55:16.152Z,4.10
2018-01-24T21:57:42.671Z,4.10
2018-01-24T22:00:09.098Z,4.20
2018-01-24T22:02:35.517Z,4.30
2018-01-24T22:05:01.920Z,4.30
2018-01-24T22:07:28.333Z,4.30
2018-01-24T22:09:55.468Z,4.30
2018-01-24T22:12:22.603Z,4.50
2018-01-24T22:14:49.230Z,4.50
2018-01-24T22:17:15.700Z,4.30
2018-01-24T22:19:42.814Z,4.40
2018-01-24T22:22:09.202Z,4.30
2018-01-24T22:24:35.598Z,4.30
2018-01-24T22:27:01.974Z,4.30
2018-01-24T22:29:28.342Z,4.20
2018-01-24T22:31:54.828Z,4.20
2018-01-24T22:34:21.245Z,4.00
2018-01-24T22:36:48.420Z,3.80
2018-01-24T22:39:14.845Z,3.80
2018-01-24T22:41:41.994Z,3.70
2018-01-24T22:44:08.410Z,3.70
2018-01-24T22:46:35.551Z,3.60
2018-01-24T22:49:01.971Z,3.60
2018-01-24T22:51:28.343Z,3.70
2018-01-24T22:53:54.730Z,3.60
2018-01-24T22:56:21.127Z,3.60
2018-01-24T22:58:47.537Z,3.60
2018-01-24T23:01:13.930Z,3.90
2018-01-24T23:03:40.323Z,4.00
2018-01-24T23:06:06.753Z,3.90
2018-01-24T23:08:33.140Z,3.80
2018-01-24T23:10:59.507Z,4.00
2018-01-24T23:13:26.070Z,4.00
2018-01-24T23:15:52.432Z,3.90
2018-01-24T23:18:18.809Z,3.80
2018-01-24T23:20:45.227Z,3.90
2018-01-24T23:23:11.602Z,3.60
2018-01-24T23:25:37.992Z,3.80
2018-01-24T23:28:04.398Z,3.80
2018-01-24T23:30:31.570Z,3.70
2018-01-24T23:32:57.983Z,3.70
2018-01-24T23:35:25.112Z,4.00
2018-01-24T23:37:53.019Z,3.90
2018-01-24T23:40:19.396Z,3.90
2018-01-24T23:42:45.769Z,3.90
2018-01-24T23:45:12.915Z,4.00
2018-01-24T23:47:40.039Z,4.10
2018-01-24T23:50:07.928Z,3.90
2018-01-24T23:52:35.926Z,4.00
2018-01-24T23:55:02.318Z,4.00
2018-01-24T23:57:30.194Z,3.60
2018-01-24T23:59:57.305Z,3.40
